Pronóstico
Mapa Interactivo
Aviación
Climatología
Hidrometeorología
Agrometeorología
Estaciones Automáticas
Transparencia
OMM WMO
Portada
Institución
Noticias
Imágenes
Tsunami
Historial
Boletines y Alertas
Contactos
Buscar Contenidos
Informe del Tiempo

SEQUÍA SE MANTIENE EN LAS REGIONES SUR, SUROESTE Y NOROESTE


SADR31 MDSD 212000Z
METAR

METAR MDPP 212000Z 09015KT 9999 FEW025 29/22 Q1017=
METAR MDST 212000Z 14011KT 9999 SCT024 30/18 Q1016=
METAR MDPC 212000Z 11012KT 9999 FEW025 27/21 Q1018=
METAR MDBH 212000Z 13018KT 9999 FEW026 SCT300 30/19 Q1017=
METAR MDJB 212000Z 18010KT 9999 SCT018 28/21 Q1019=
METAR MDSD 212000Z 13012KT 9999 SCT022 29/20 Q1017=
METAR MDLR 212000Z 11010KT 9999 BKN020 27/20 Q1017=
METAR MDCY 212000Z 12010KT 9999 FEW025 30/20 Q1018=
METAR MDAB 212000Z 09010KT 9999 FEW020 28/23 Q1017=